Time,TemperatureF,DewpointF,PressureIn,WindDirection,WindDirectionDegrees,WindSpeedMPH,WindSpeedGustMPH,Humidity,HourlyPrecipIn,Conditions,Clouds,dailyrainin,SoftwareType,DateUTC
2013-01-01 00:02:00,8.2,5.0,30.29,ENE,71,0.0,3.0,86,0.00,,,0.06,meteohub,2013-01-01 07:02:00,
2013-01-01 00:12:00,8.1,4.8,30.29,ENE,71,1.0,3.0,86,0.00,,,0.00,meteohub,2013-01-01 07:12:00,
2013-01-01 00:22:00,8.1,5.0,30.29,ENE,71,2.0,2.0,87,0.00,,,0.00,meteohub,2013-01-01 07:22:00,
2013-01-01 00:32:00,8.1,5.0,30.29,ENE,71,2.0,4.0,87,0.00,,,0.00,meteohub,2013-01-01 07:32:00,
2013-01-01 00:42:00,7.9,4.6,30.29,ENE,71,3.0,4.0,86,0.00,,,0.00,meteohub,2013-01-01 07:42:00,
2013-01-01 00:52:00,7.5,4.3,30.29,ENE,71,3.0,4.0,86,0.00,,,0.00,meteohub,2013-01-01 07:52:00,
2013-01-01 01:02:00,7.2,3.9,30.30,ENE,71,2.0,4.0,86,0.00,,,0.00,meteohub,2013-01-01 08:02:00,
2013-01-01 01:12:00,7.0,3.7,30.30,ENE,71,1.0,3.0,86,0.00,,,0.00,meteohub,2013-01-01 08:12:00,
2013-01-01 01:22:00,7.0,3.7,30.30,ENE,71,2.0,3.0,86,0.00,,,0.00,meteohub,2013-01-01 08:22:00,
2013-01-01 01:32:00,6.6,3.6,30.30,ENE,71,1.0,4.0,87,0.00,,,0.00,meteohub,2013-01-01 08:32:00,
2013-01-01 01:42:00,6.6,3.6,30.31,ENE,71,2.0,3.0,87,0.00,,,0.00,meteohub,2013-01-01 08:42:00,
2013-01-01 01:52:00,6.6,3.6,30.31,ENE,71,2.0,3.0,87,0.00,,,0.00,meteohub,2013-01-01 08:52:00,
2013-01-01 02:02:00,6.8,3.9,30.31,ENE,71,2.0,3.0,88,0.00,,,0.00,meteohub,2013-01-01 09:02:00,
2013-01-01 02:12:00,7.0,4.1,30.32,ENE,71,2.0,3.0,88,0.00,,,0.00,meteohub,2013-01-01 09:12:00,
2013-01-01 02:22:00,6.6,3.6,30.32,ENE,71,0.0,3.0,87,0.00,,,0.00,meteohub,2013-01-01 09:22:00,
2013-01-01 02:32:00,5.9,2.3,30.33,ENE,71,0.0,2.0,85,0.00,,,0.00,meteohub,2013-01-01 09:32:00,
2013-01-01 02:42:00,5.7,2.7,30.34,ENE,71,0.0,1.0,87,0.00,,,0.00,meteohub,2013-01-01 09:42:00,
2013-01-01 02:52:00,5.9,2.8,30.34,ENE,71,0.0,0.0,87,0.00,,,0.00,meteohub,2013-01-01 09:52:00,
2013-01-01 03:02:00,5.7,2.5,30.34,ENE,71,0.0,1.0,86,0.00,,,0.00,meteohub,2013-01-01 10:02:00,
2013-01-01 03:12:00,5.5,2.5,30.34,ENE,71,0.0,1.0,87,0.00,,,0.00,meteohub,2013-01-01 10:12:00,
2013-01-01 03:22:00,5.5,2.3,30.34,ENE,71,0.0,0.0,86,0.00,,,0.00,meteohub,2013-01-01 10:22:00,
2013-01-01 03:32:00,5.4,2.3,30.35,ENE,71,0.0,0.0,87,0.00,,,0.00,meteohub,2013-01-01 10:32:00,
2013-01-01 03:42:00,5.7,3.0,30.35,ENE,71,0.0,0.0,88,0.00,,,0.00,meteohub,2013-01-01 10:42:00,
2013-01-01 03:52:00,6.1,3.4,30.35,ENE,71,0.0,0.0,88,0.00,,,0.00,meteohub,2013-01-01 10:52:00,
2013-01-01 04:02:00,5.4,1.4,30.35,ENE,71,1.0,2.0,83,0.00,,,0.00,meteohub,2013-01-01 11:02:00,
2013-01-01 04:12:00,4.6,0.7,30.35,ENE,71,3.0,3.0,83,0.00,,,0.00,meteohub,2013-01-01 11:12:00,
2013-01-01 04:22:00,4.3,-0.2,30.35,ENE,71,1.0,4.0,81,0.00,,,0.00,meteohub,2013-01-01 11:22:00,
2013-01-01 04:32:00,3.9,0.5,30.35,ENE,71,0.0,2.0,85,0.00,,,0.00,meteohub,2013-01-01 11:32:00,
2013-01-01 04:42:00,4.6,1.4,30.36,ENE,71,2.0,2.0,86,0.00,,,0.00,meteohub,2013-01-01 11:42:00,
2013-01-01 04:52:00,4.3,0.5,30.37,ENE,71,1.0,2.0,84,0.00,,,0.00,meteohub,2013-01-01 11:52:00,
2013-01-01 05:02:00,4.3,0.5,30.36,ENE,71,1.0,2.0,84,0.00,,,0.00,meteohub,2013-01-01 12:02:00,
2013-01-01 05:12:00,4.5,1.0,30.37,ENE,71,0.0,2.0,85,0.00,,,0.00,meteohub,2013-01-01 12:12:00,
2013-01-01 05:22:00,4.5,0.7,30.38,ENE,71,2.0,2.0,84,0.00,,,0.00,meteohub,2013-01-01 12:22:00,
2013-01-01 05:32:00,3.9,0.0,30.38,ENE,71,1.0,3.0,83,0.00,,,0.00,meteohub,2013-01-01 12:32:00,
2013-01-01 05:42:00,3.6,-0.8,30.38,ENE,71,2.0,3.0,82,0.00,,,0.00,meteohub,2013-01-01 12:42:00,
2013-01-01 05:52:00,3.9,0.5,30.38,ENE,71,2.0,3.0,85,0.00,,,0.00,meteohub,2013-01-01 12:52:00,
2013-01-01 06:02:00,4.8,1.0,30.39,ENE,71,1.0,3.0,84,0.00,,,0.00,meteohub,2013-01-01 13:02:00,
2013-01-01 06:12:00,5.4,1.0,30.40,ENE,71,1.0,3.0,82,0.00,,,0.00,meteohub,2013-01-01 13:12:00,
2013-01-01 06:22:00,4.8,0.3,30.40,ENE,71,0.0,4.0,81,0.00,,,0.00,meteohub,2013-01-01 13:22:00,
2013-01-01 06:32:00,4.5,0.1,30.41,ENE,71,0.0,2.0,82,0.00,,,0.00,meteohub,2013-01-01 13:32:00,
2013-01-01 06:42:00,4.6,1.4,30.41,ENE,71,0.0,2.0,86,0.00,,,0.00,meteohub,2013-01-01 13:42:00,
2013-01-01 06:52:00,5.0,1.2,30.41,ENE,71,1.0,2.0,84,0.00,,,0.00,meteohub,2013-01-01 13:52:00,
2013-01-01 07:02:00,4.6,0.7,30.42,ENE,71,1.0,2.0,83,0.00,,,0.00,meteohub,2013-01-01 14:02:00,
2013-01-01 07:12:00,5.0,1.0,30.42,ENE,71,0.0,2.0,83,0.00,,,0.00,meteohub,2013-01-01 14:12:00,
2013-01-01 07:22:00,4.3,0.0,30.43,ENE,71,0.0,1.0,82,0.00,,,0.00,meteohub,2013-01-01 14:22:00,
2013-01-01 07:32:00,4.6,0.9,30.43,ENE,71,2.0,0.0,84,0.00,,,0.00,meteohub,2013-01-01 14:32:00,
2013-01-01 07:42:00,5.5,1.6,30.43,ENE,71,0.0,3.0,83,0.00,,,0.00,meteohub,2013-01-01 14:42:00,
2013-01-01 07:52:00,6.1,2.1,30.44,ENE,71,0.0,3.0,83,0.00,,,0.00,meteohub,2013-01-01 14:52:00,
2013-01-01 08:02:00,6.1,1.8,30.44,ENE,71,0.0,3.0,82,0.00,,,0.00,meteohub,2013-01-01 15:02:00,
2013-01-01 08:12:00,6.4,2.3,30.45,ENE,71,0.0,3.0,83,0.00,,,0.00,meteohub,2013-01-01 15:12:00,
2013-01-01 08:22:00,7.2,2.8,30.45,ENE,71,0.0,2.0,82,0.00,,,0.00,meteohub,2013-01-01 15:22:00,
2013-01-01 08:32:00,7.3,3.0,30.46,ENE,71,0.0,2.0,82,0.00,,,0.00,meteohub,2013-01-01 15:32:00,
2013-01-01 08:42:00,7.9,3.2,30.46,ENE,71,2.0,2.0,81,0.00,,,0.00,meteohub,2013-01-01 15:42:00,
2013-01-01 08:52:00,8.4,3.6,30.47,ENE,71,1.0,3.0,80,0.00,,,0.00,meteohub,2013-01-01 15:52:00,
2013-01-01 09:02:00,9.0,4.6,30.47,ENE,71,0.0,3.0,82,0.00,,,0.00,meteohub,2013-01-01 16:02:00,
2013-01-01 09:12:00,9.7,5.4,30.48,ENE,71,1.0,3.0,82,0.00,,,0.00,meteohub,2013-01-01 16:12:00,
2013-01-01 09:22:00,10.2,6.1,30.48,ENE,71,0.0,5.0,83,0.00,,,0.00,meteohub,2013-01-01 16:22:00,
2013-01-01 09:32:00,10.6,5.4,30.48,ENE,71,0.0,2.0,79,0.00,,,0.00,meteohub,2013-01-01 16:32:00,
2013-01-01 09:42:00,10.8,5.5,30.48,ENE,71,0.0,2.0,79,0.00,,,0.00,meteohub,2013-01-01 16:42:00,
2013-01-01 09:52:00,11.1,5.9,30.49,ENE,71,1.0,2.0,79,0.00,,,0.00,meteohub,2013-01-01 16:52:00,
2013-01-01 10:02:00,11.8,6.6,30.49,ENE,71,0.0,1.0,79,0.00,,,0.00,meteohub,2013-01-01 17:02:00,
2013-01-01 10:12:00,11.8,6.3,30.49,ENE,71,0.0,2.0,78,0.00,,,0.00,meteohub,2013-01-01 17:12:00,
2013-01-01 10:22:00,11.8,6.3,30.49,ENE,71,0.0,2.0,78,0.00,,,0.00,meteohub,2013-01-01 17:22:00,
2013-01-01 10:32:00,12.4,7.2,30.49,ENE,71,0.0,2.0,79,0.00,,,0.00,meteohub,2013-01-01 17:32:00,
2013-01-01 10:42:00,13.1,7.5,30.49,ENE,71,2.0,0.0,78,0.00,,,0.00,meteohub,2013-01-01 17:42:00,
2013-01-01 10:52:00,13.5,7.0,30.49,ENE,71,3.0,5.0,75,0.00,,,0.00,meteohub,2013-01-01 17:52:00,
2013-01-01 11:02:00,13.6,7.0,30.48,ENE,71,4.0,5.0,74,0.00,,,0.00,meteohub,2013-01-01 18:02:00,
2013-01-01 11:12:00,14.9,8.1,30.48,ENE,71,1.0,7.0,74,0.00,,,0.00,meteohub,2013-01-01 18:12:00,
2013-01-01 11:22:00,16.2,8.1,30.48,ENE,71,2.0,5.0,70,0.00,,,0.00,meteohub,2013-01-01 18:22:00,
2013-01-01 11:32:00,17.4,8.4,30.47,ENE,71,0.0,5.0,67,0.00,,,0.00,meteohub,2013-01-01 18:32:00,
2013-01-01 11:42:00,18.0,7.9,30.47,ENE,71,5.0,5.0,64,0.00,,,0.00,meteohub,2013-01-01 18:42:00,
2013-01-01 11:52:00,17.8,8.4,30.46,ENE,71,1.0,5.0,66,0.00,,,0.00,meteohub,2013-01-01 18:52:00,
2013-01-01 12:02:00,18.3,8.2,30.46,ENE,71,1.0,5.0,64,0.00,,,0.00,meteohub,2013-01-01 19:02:00,
2013-01-01 12:12:00,19.0,7.9,30.45,ENE,71,3.0,5.0,61,0.00,,,0.00,meteohub,2013-01-01 19:12:00,
2013-01-01 12:22:00,19.2,8.1,30.44,ENE,71,4.0,4.0,61,0.00,,,0.00,meteohub,2013-01-01 19:22:00,
2013-01-01 12:32:00,19.2,7.7,30.44,ENE,71,1.0,5.0,60,0.00,,,0.00,meteohub,2013-01-01 19:32:00,
2013-01-01 12:42:00,19.9,7.5,30.44,ENE,71,4.0,5.0,58,0.00,,,0.00,meteohub,2013-01-01 19:42:00,
2013-01-01 12:52:00,19.2,7.2,30.43,ENE,71,4.0,7.0,59,0.00,,,0.00,meteohub,2013-01-01 19:52:00,
2013-01-01 13:02:00,19.6,6.4,30.43,ENE,71,1.0,7.0,56,0.00,,,0.00,meteohub,2013-01-01 20:02:00,
2013-01-01 13:12:00,19.6,5.7,30.43,ENE,71,7.0,7.0,54,0.00,,,0.00,meteohub,2013-01-01 20:12:00,
2013-01-01 13:22:00,19.8,7.0,30.43,East,81,5.0,7.0,57,0.00,,,0.00,meteohub,2013-01-01 20:22:00,
2013-01-01 13:32:00,20.5,6.8,30.42,SSE,156,3.0,11.0,55,0.00,,,0.00,meteohub,2013-01-01 20:32:00,
2013-01-01 13:42:00,21.0,5.4,30.42,SSE,156,1.0,9.0,50,0.00,,,0.00,meteohub,2013-01-01 20:42:00,
2013-01-01 13:52:00,21.6,5.7,30.42,SSE,157,7.0,7.0,50,0.00,,,0.00,meteohub,2013-01-01 20:52:00,
2013-01-01 14:02:00,21.9,3.7,30.42,West,272,13.0,13.0,45,0.00,,,0.00,meteohub,2013-01-01 21:02:00,
2013-01-01 14:12:00,20.7,3.2,30.42,West,272,6.0,17.0,46,0.00,,,0.00,meteohub,2013-01-01 21:12:00,
2013-01-01 14:22:00,19.9,2.5,30.43,West,276,11.0,16.0,46,0.00,,,0.00,meteohub,2013-01-01 21:22:00,
2013-01-01 14:32:00,19.8,2.3,30.43,West,275,9.0,15.0,46,0.00,,,0.00,meteohub,2013-01-01 21:32:00,
2013-01-01 14:42:00,19.9,3.4,30.43,West,278,13.0,15.0,48,0.00,,,0.00,meteohub,2013-01-01 21:42:00,
2013-01-01 14:52:00,19.8,2.8,30.43,West,278,9.0,17.0,47,0.00,,,0.00,meteohub,2013-01-01 21:52:00,
2013-01-01 15:02:00,19.6,2.7,30.43,WSW,253,14.0,18.0,47,0.00,,,0.00,meteohub,2013-01-01 22:02:00,
2013-01-01 15:12:00,19.9,1.9,30.43,WSW,257,8.0,18.0,45,0.00,,,0.00,meteohub,2013-01-01 22:12:00,
2013-01-01 15:22:00,19.8,1.4,30.44,West,271,7.0,15.0,44,0.00,,,0.00,meteohub,2013-01-01 22:22:00,
2013-01-01 15:32:00,20.3,1.9,30.44,WSW,254,7.0,15.0,44,0.00,,,0.00,meteohub,2013-01-01 22:32:00,
2013-01-01 15:42:00,20.1,1.8,30.44,West,259,8.0,13.0,44,0.00,,,0.00,meteohub,2013-01-01 22:42:00,
2013-01-01 15:52:00,19.6,1.8,30.45,West,272,7.0,14.0,45,0.00,,,0.00,meteohub,2013-01-01 22:52:00,
2013-01-01 16:02:00,18.9,1.0,30.45,West,259,8.0,14.0,45,0.00,,,0.00,meteohub,2013-01-01 23:02:00,
2013-01-01 16:12:00,18.1,0.3,30.45,West,275,9.0,17.0,45,0.00,,,0.00,meteohub,2013-01-01 23:12:00,
2013-01-01 16:22:00,16.7,0.0,30.46,West,271,11.0,16.0,47,0.00,,,0.00,meteohub,2013-01-01 23:22:00,
2013-01-01 16:32:00,16.0,-0.2,30.46,WSW,256,5.0,14.0,48,0.00,,,0.00,meteohub,2013-01-01 23:32:00,
2013-01-01 16:42:00,15.4,-0.4,30.46,West,266,10.0,13.0,49,0.00,,,0.00,meteohub,2013-01-01 23:42:00,
2013-01-01 16:52:00,15.3,0.0,30.46,West,265,8.0,17.0,50,0.00,,,0.00,meteohub,2013-01-01 23:52:00,
2013-01-01 17:02:00,15.1,-0.6,30.46,West,268,10.0,19.0,49,0.00,,,0.00,meteohub,2013-01-02 00:02:00,
2013-01-01 17:12:00,14.9,-0.8,30.46,West,274,11.0,16.0,49,0.00,,,0.00,meteohub,2013-01-02 00:12:00,
2013-01-01 17:22:00,14.5,-0.8,30.47,West,266,10.0,19.0,50,0.00,,,0.00,meteohub,2013-01-02 00:22:00,
2013-01-01 17:32:00,14.4,0.0,30.47,West,273,14.0,19.0,52,0.00,,,0.00,meteohub,2013-01-02 00:32:00,
2013-01-01 17:42:00,14.0,0.0,30.48,West,272,6.0,18.0,53,0.00,,,0.00,meteohub,2013-01-02 00:42:00,
2013-01-01 17:52:00,13.6,-0.8,30.47,West,270,9.0,17.0,52,0.00,,,0.00,meteohub,2013-01-02 00:52:00,
2013-01-01 18:02:00,13.8,-0.6,30.48,NW,309,4.0,15.0,52,0.00,,,0.00,meteohub,2013-01-02 01:02:00,
2013-01-01 18:12:00,13.1,-1.3,30.47,NW,306,6.0,13.0,52,0.00,,,0.00,meteohub,2013-01-02 01:12:00,
2013-01-01 18:22:00,13.1,-1.7,30.47,NW,309,4.0,12.0,51,0.00,,,0.00,meteohub,2013-01-02 01:22:00,
2013-01-01 18:32:00,12.6,-2.9,30.47,NW,309,4.0,11.0,49,0.00,,,0.00,meteohub,2013-01-02 01:32:00,
2013-01-01 18:42:00,12.7,-2.7,30.47,NW,307,4.0,8.0,49,0.00,,,0.00,meteohub,2013-01-02 01:42:00,
2013-01-01 18:52:00,12.7,-2.7,30.47,NW,307,3.0,8.0,49,0.00,,,0.00,meteohub,2013-01-02 01:52:00,
2013-01-01 19:02:00,12.4,-3.1,30.47,NW,307,3.0,8.0,49,0.00,,,0.00,meteohub,2013-01-02 02:02:00,
2013-01-01 19:12:00,12.2,-3.3,30.48,NW,307,3.0,7.0,49,0.00,,,0.00,meteohub,2013-01-02 02:12:00,
2013-01-01 19:22:00,11.3,-4.5,30.49,NW,307,2.0,6.0,48,0.00,,,0.00,meteohub,2013-01-02 02:22:00,
2013-01-01 19:32:00,10.0,-3.6,30.49,NW,307,4.0,4.0,53,0.00,,,0.00,meteohub,2013-01-02 02:32:00,
2013-01-01 19:42:00,9.3,-3.3,30.50,NW,306,5.0,6.0,56,0.00,,,0.00,meteohub,2013-01-02 02:42:00,
2013-01-01 19:52:00,9.0,-3.1,30.49,NW,306,4.0,6.0,57,0.00,,,0.00,meteohub,2013-01-02 02:52:00,
2013-01-01 20:02:00,8.6,-2.4,30.51,NW,305,4.0,6.0,60,0.00,,,0.00,meteohub,2013-01-02 03:02:00,
2013-01-01 20:12:00,9.3,-2.0,30.52,WNW,286,1.0,10.0,59,0.00,,,0.00,meteohub,2013-01-02 03:12:00,
2013-01-01 20:22:00,9.3,-2.0,30.52,WNW,286,0.0,7.0,59,0.00,,,0.00,meteohub,2013-01-02 03:22:00,
2013-01-01 20:32:00,9.0,-2.4,30.53,WNW,286,0.0,4.0,59,0.00,,,0.00,meteohub,2013-01-02 03:32:00,
2013-01-01 20:42:00,8.6,-2.4,30.53,WNW,286,0.0,4.0,60,0.00,,,0.00,meteohub,2013-01-02 03:42:00,
2013-01-01 20:52:00,8.1,-2.9,30.53,WNW,286,2.0,4.0,60,0.00,,,0.00,meteohub,2013-01-02 03:52:00,
2013-01-01 21:02:00,8.1,-2.6,30.53,WNW,286,3.0,6.0,61,0.00,,,0.00,meteohub,2013-01-02 04:02:00,
2013-01-01 21:12:00,7.9,-2.7,30.54,WNW,286,1.0,7.0,61,0.00,,,0.00,meteohub,2013-01-02 04:12:00,
2013-01-01 21:22:00,7.3,-2.9,30.54,WNW,286,4.0,5.0,62,0.00,,,0.00,meteohub,2013-01-02 04:22:00,
2013-01-01 21:32:00,7.2,-2.7,30.55,WNW,286,1.0,5.0,63,0.00,,,0.00,meteohub,2013-01-02 04:32:00,
2013-01-01 21:42:00,7.3,-2.6,30.55,WNW,286,2.0,4.0,63,0.00,,,0.00,meteohub,2013-01-02 04:42:00,
2013-01-01 21:52:00,7.0,-2.9,30.55,WNW,286,0.0,5.0,63,0.00,,,0.00,meteohub,2013-01-02 04:52:00,
2013-01-01 22:02:00,7.2,-3.1,30.55,WNW,286,0.0,3.0,62,0.00,,,0.00,meteohub,2013-01-02 05:02:00,
2013-01-01 22:12:00,7.0,-2.9,30.54,WNW,286,2.0,2.0,63,0.00,,,0.00,meteohub,2013-01-02 05:12:00,
2013-01-01 22:22:00,7.2,-3.5,30.54,WNW,286,2.0,3.0,61,0.00,,,0.00,meteohub,2013-01-02 05:22:00,
2013-01-01 22:32:00,6.8,-3.5,30.54,WNW,286,2.0,5.0,62,0.00,,,0.00,meteohub,2013-01-02 05:32:00,
2013-01-01 22:42:00,6.6,-3.6,30.55,WNW,286,2.0,5.0,62,0.00,,,0.00,meteohub,2013-01-02 05:42:00,
2013-01-01 22:52:00,6.4,-3.8,30.55,WNW,286,2.0,4.0,62,0.00,,,0.00,meteohub,2013-01-02 05:52:00,
2013-01-01 23:02:00,7.0,-3.3,30.56,WNW,286,1.0,4.0,62,0.00,,,0.00,meteohub,2013-01-02 06:02:00,
2013-01-01 23:12:00,7.0,-3.6,30.56,WNW,286,3.0,4.0,61,0.00,,,0.00,meteohub,2013-01-02 06:12:00,
2013-01-01 23:22:00,6.4,-4.2,30.56,WNW,286,3.0,5.0,61,0.00,,,0.00,meteohub,2013-01-02 06:22:00,
2013-01-01 23:32:00,6.3,-4.4,30.56,WNW,286,5.0,6.0,61,0.00,,,0.00,meteohub,2013-01-02 06:32:00,
2013-01-01 23:42:00,5.7,-4.5,30.56,WNW,286,4.0,7.0,62,0.00,,,0.00,meteohub,2013-01-02 06:42:00,
2013-01-01 23:52:00,5.7,-4.5,30.56,WNW,286,3.0,7.0,62,0.00,,,0.00,meteohub,2013-01-02 06:52:00,